Date,TemperatureHighF,TemperatureAvgF,TemperatureLowF,DewpointHighF,DewpointAvgF,DewpointLowF,HumidityHigh,HumidityAvg,HumidityLow,PressureMaxIn,PressureMinIn,WindSpeedMaxMPH,WindSpeedAvgMPH,GustSpeedMaxMPH,PrecipitationSumIn
2013-1-1,76.2,64.8,53.5,68.0,61.3,51.0,93,88,74,30.07,29.90,11,2,0,0.19
2013-1-2,53.3,48.6,44.3,51.0,45.5,42.0,93,89,84,30.23,30.05,9,3,0,0.06
2013-1-3,48.1,44.5,41.5,42.0,35.8,31.0,94,73,53,30.38,30.20,12,2,0,0.19
2013-1-4,56.1,47.6,40.4,41.0,34.0,30.0,78,61,41,30.45,30.32,8,1,0,0.00
2013-1-5,54.9,50.9,47.9,44.0,40.5,36.0,76,68,59,30.35,30.21,7,1,0,0.00
2013-1-6,52.0,49.3,46.3,48.0,45.4,42.0,94,86,69,30.29,30.15,6,2,0,0.38
2013-1-7,56.7,50.4,44.0,48.0,44.4,40.0,91,80,68,30.30,30.17,6,1,0,0.00
2013-1-8,60.4,56.7,52.6,59.0,53.2,46.0,95,88,75,30.20,30.06,4,1,0,0.57
2013-1-9,68.2,64.1,58.9,67.0,62.6,58.0,95,95,93,30.17,30.06,6,1,0,0.45
2013-1-10,68.9,65.6,62.5,68.0,64.3,61.0,95,95,94,30.17,29.99,16,2,0,0.91
2013-1-11,76.2,69.3,64.2,71.0,67.3,63.0,95,93,84,30.11,30.00,13,1,0,0.08
2013-1-12,79.8,71.8,68.7,72.0,68.5,67.0,95,89,73,30.06,29.92,10,2,0,0.00
2013-1-13,76.7,68.5,53.2,72.0,66.0,52.0,94,92,82,30.05,29.89,16,3,0,0.98
2013-1-14,55.5,50.1,43.5,54.0,48.7,42.0,95,95,94,30.12,30.03,10,2,0,0.66
2013-1-15,55.6,50.9,47.0,54.0,49.5,46.0,95,95,92,30.07,29.93,7,1,0,0.06
2013-1-16,48.2,42.9,39.8,47.0,41.1,37.0,95,93,90,30.15,29.97,11,2,0,0.34
2013-1-17,51.9,46.0,39.1,40.0,37.7,36.0,92,74,55,30.41,30.15,14,3,0,0.00
2013-1-18,54.3,46.8,40.5,42.0,39.5,36.0,93,76,61,30.52,30.38,6,1,0,0.00
2013-1-19,63.2,50.4,40.6,50.0,43.7,39.0,94,79,54,30.38,30.23,9,1,0,0.00
2013-1-20,64.9,53.8,44.5,54.0,48.4,43.0,95,83,61,30.27,30.14,4,0,0,0.01
2013-1-21,66.8,55.4,45.4,49.0,46.4,44.0,95,74,47,30.23,30.13,5,1,0,0.00
2013-1-22,60.4,52.9,46.6,47.0,43.6,36.0,91,72,51,30.36,30.20,4,0,0,0.00
2013-1-23,69.9,57.0,44.1,53.0,48.2,42.0,95,75,47,30.40,30.29,5,0,0,0.00
2013-1-24,74.8,60.2,48.9,60.0,54.4,47.0,95,82,59,30.35,30.23,4,0,0,0.00
2013-1-25,74.5,63.0,52.6,61.0,57.4,51.0,94,83,61,30.27,30.15,11,1,0,0.00
2013-1-26,76.7,63.7,53.1,64.0,58.1,52.0,95,83,58,30.26,30.17,2,0,0,0.00
2013-1-27,74.7,64.0,56.1,64.0,59.6,54.0,95,86,67,30.27,30.19,9,1,0,0.01
2013-1-28,77.6,66.8,56.9,69.0,63.0,55.0,95,88,73,30.25,30.11,10,2,0,0.00
2013-1-29,78.7,71.9,66.6,72.0,68.6,65.0,94,89,78,30.11,29.81,16,3,0,0.01
2013-1-30,73.4,61.3,48.5,70.0,52.6,33.0,94,75,46,30.18,29.69,15,4,0,1.02
2013-1-31,61.4,50.2,38.9,40.0,33.4,25.0,89,56,25,30.35,30.18,5,0,0,0.00
2013-2-1,65.2,52.9,44.5,47.0,42.1,37.0,90,69,42,30.40,30.30,6,1,0,0.00
2013-2-2,71.1,56.5,43.8,55.0,49.4,42.0,94,79,53,30.33,30.18,7,1,0,0.00
2013-2-3,67.8,57.4,49.0,53.0,45.3,37.0,94,68,35,30.28,30.12,4,0,0,0.00
2013-2-4,65.0,55.9,48.6,56.0,51.2,47.0,94,85,56,30.12,29.93,3,0,0,0.74
2013-2-5,69.8,61.6,55.8,63.0,58.4,54.0,94,89,78,30.03,29.92,5,0,0,0.00
2013-2-6,67.6,60.2,53.9,62.0,57.4,52.0,95,91,80,30.13,29.93,6,1,0,0.61
2013-2-7,74.6,63.2,56.7,64.0,59.1,55.0,95,87,67,29.96,29.80,16,2,0,1.47
2013-2-8,67.8,60.2,53.9,62.0,57.0,52.0,95,89,79,30.15,29.96,6,1,0,0.00
2013-2-9,65.5,59.7,53.8,61.0,55.5,50.0,93,86,79,30.21,30.02,5,1,0,0.00
2013-2-10,75.4,69.4,63.2,71.0,66.5,61.0,94,90,85,30.04,29.93,15,4,0,0.00
2013-2-11,69.5,62.6,57.4,68.0,60.7,56.0,95,93,88,30.11,29.98,14,2,0,0.95
2013-2-12,74.8,64.9,58.6,72.0,63.1,57.0,95,94,89,30.03,29.75,11,1,0,0.14
2013-2-13,64.3,52.6,46.4,62.0,49.3,42.0,92,88,80,30.07,29.82,6,1,0,0.17
2013-2-14,61.0,49.9,42.3,45.0,42.3,38.0,92,77,47,30.17,30.05,4,0,0,0.00
2013-2-15,65.2,53.1,40.9,51.0,42.2,39.0,95,70,40,30.18,30.07,6,1,0,0.00
2013-2-16,54.8,49.4,40.2,43.0,32.9,22.0,82,56,31,30.30,30.15,13,2,0,0.01
2013-2-17,63.9,49.3,37.4,41.0,35.6,28.0,85,62,35,30.36,30.24,6,0,0,0.00
2013-2-18,66.3,57.8,47.2,61.0,51.8,40.0,89,81,67,30.24,29.98,11,3,0,0.00
2013-2-19,66.6,60.4,51.6,61.0,47.1,31.0,94,66,33,30.23,29.98,15,3,0,0.19
2013-2-20,58.7,52.2,45.6,41.0,35.8,30.0,60,54,47,30.25,30.02,11,2,0,0.00
2013-2-21,74.5,64.9,54.9,68.0,59.0,41.0,94,81,61,30.02,29.78,15,3,0,0.07
2013-2-22,69.2,64.2,58.4,68.0,60.3,55.0,94,87,71,29.97,29.85,9,1,0,0.31
2013-2-23,58.8,57.4,55.5,57.0,55.2,54.0,95,92,88,29.95,29.84,6,1,0,1.19
2013-2-24,62.6,57.7,50.6,60.0,54.7,48.0,95,89,82,29.96,29.73,9,1,0,1.45
2013-2-25,65.6,62.0,58.7,64.0,60.1,49.0,95,93,69,29.73,29.48,6,1,0,0.82
2013-2-26,61.3,54.1,46.6,48.0,42.5,37.0,88,66,52,29.94,29.59,11,2,0,0.00
2013-2-27,71.8,57.4,46.4,52.0,47.3,44.0,94,72,41,30.04,29.93,10,1,0,0.00
2013-2-28,57.7,52.3,46.4,46.0,37.4,34.0,75,58,46,30.14,30.02,9,1,0,0.00
2013-3-1,61.8,51.7,44.6,40.0,36.6,32.0,81,59,36,30.17,30.04,9,1,0,0.00
2013-3-2,51.6,44.5,37.4,36.0,31.1,27.0,79,60,46,30.26,30.13,10,2,0,0.00
2013-3-3,55.2,44.7,35.3,39.0,30.6,25.0,84,60,36,30.30,30.15,5,0,0,0.00
2013-3-4,70.0,57.4,40.6,57.0,49.6,37.0,97,77,56,30.14,29.95,13,2,0,0.00
2013-3-5,76.6,66.2,55.5,65.0,55.3,40.0,89,70,40,30.19,29.94,7,2,0,0.00
2013-3-6,62.1,53.9,46.5,43.0,33.1,29.0,66,47,30,30.33,30.19,10,2,0,0.00
2013-3-7,63.9,52.7,42.7,45.0,39.1,34.0,88,62,37,30.35,30.23,11,0,0,0.00
2013-3-8,71.9,56.7,43.1,51.0,45.4,41.0,94,69,42,30.30,30.17,5,0,0,0.00
2013-3-9,73.7,62.1,52.2,60.0,55.8,48.0,90,80,61,30.17,29.95,12,2,0,0.00
2013-3-10,76.7,68.7,60.8,68.0,63.4,59.0,93,84,67,29.99,29.88,14,3,0,0.00
2013-3-11,67.6,55.6,46.7,66.0,49.2,42.0,93,80,58,30.03,29.85,7,1,0,0.48
2013-3-12,65.4,55.1,46.5,44.0,41.5,38.0,82,62,40,30.21,30.03,7,1,0,0.00
2013-3-13,66.8,56.5,44.3,46.0,38.6,30.0,92,57,26,30.39,30.20,12,2,0,0.00
2013-3-14,67.6,56.6,46.6,47.0,35.4,30.0,80,47,29,30.45,30.30,5,0,0,0.00
2013-3-15,77.2,60.6,46.1,53.0,47.2,43.0,93,66,34,30.32,30.15,7,1,0,0.00
2013-3-16,79.2,65.8,51.3,61.0,55.9,49.0,94,73,44,30.15,29.96,14,1,0,0.00
2013-3-17,78.8,67.6,59.8,67.0,62.1,57.0,93,83,55,29.97,29.85,8,2,0,0.00
2013-3-18,85.9,73.4,66.4,72.0,67.6,64.0,93,83,61,29.91,29.76,7,1,0,0.00
2013-3-19,76.9,66.8,60.2,64.0,58.9,53.0,93,77,56,30.03,29.89,12,2,0,0.00
2013-3-20,69.4,62.2,55.3,61.0,45.3,35.0,92,56,30,30.16,29.96,10,2,0,0.02
2013-3-21,67.8,58.1,48.1,49.0,41.3,35.0,79,55,36,30.06,29.87,7,1,0,0.00
2013-3-22,78.1,67.5,55.9,70.0,62.4,50.0,91,83,74,29.88,29.76,11,2,0,0.00
2013-3-23,78.8,70.7,64.1,72.0,68.1,62.0,94,91,80,29.82,29.58,6,1,0,0.00
2013-3-24,73.2,66.6,51.8,69.0,54.3,34.0,93,68,31,29.99,29.59,13,2,0,0.00
2013-3-25,60.1,50.4,41.8,36.0,30.9,24.0,71,50,25,30.25,30.00,15,2,0,0.00
2013-3-26,56.3,49.5,41.5,32.0,28.7,24.0,64,46,35,30.40,30.25,12,2,0,0.00
2013-3-27,63.9,51.8,40.8,43.0,37.1,31.0,83,59,41,30.44,30.28,7,1,0,0.00
2013-3-28,70.9,56.4,41.7,51.0,46.0,40.0,94,71,38,30.36,30.25,5,0,0,0.00
2013-3-29,77.3,62.2,47.6,57.0,52.4,45.0,94,73,43,30.33,30.19,10,1,0,0.00
2013-3-30,79.5,66.1,53.9,61.0,57.8,52.0,93,76,50,30.20,30.03,7,1,0,0.00
2013-3-31,82.4,66.4,58.4,69.0,61.5,56.0,94,85,61,30.05,29.92,11,1,0,0.14
2013-4-1,75.8,65.2,58.7,62.0,58.4,56.0,94,80,52,30.09,29.93,9,1,0,0.00
2013-4-2,78.9,66.3,55.3,64.0,59.3,53.0,94,80,45,30.10,29.96,8,1,0,0.00
2013-4-3,69.1,62.9,58.5,65.0,60.5,56.0,94,92,84,30.00,29.72,16,2,0,2.12
2013-4-4,65.9,57.7,52.7,57.0,53.3,48.0,93,85,73,30.02,29.88,7,1,0,0.00
2013-4-5,66.6,56.2,50.0,52.0,49.1,45.0,91,78,59,30.16,30.02,12,2,0,0.00
2013-4-6,76.9,62.1,47.8,58.0,53.5,46.0,95,76,50,30.15,30.06,8,1,0,0.00
2013-4-7,79.1,67.4,55.1,63.0,59.6,53.0,94,77,53,30.10,29.99,10,2,0,0.00
2013-4-8,82.8,70.6,59.8,69.0,64.9,58.0,94,83,61,30.02,29.94,10,2,0,0.00
2013-4-9,83.5,75.5,71.2,74.0,71.2,69.0,92,86,73,30.02,29.90,14,4,0,0.00
2013-4-10,84.8,76.0,70.8,74.0,70.9,68.0,93,84,69,29.97,29.82,16,6,0,0.00
2013-4-11,77.5,68.8,57.2,73.0,65.7,53.0,94,90,84,29.85,29.64,15,3,0,1.13
2013-4-12,74.3,62.4,53.7,53.0,50.4,48.0,87,67,42,29.98,29.85,9,2,0,0.00
2013-4-13,78.1,66.1,54.0,61.0,54.4,50.0,92,68,43,30.03,29.84,7,1,0,0.01
2013-4-14,75.7,66.0,59.0,66.0,61.6,57.0,95,86,68,29.86,29.68,10,1,0,4.04
2013-4-15,78.7,70.0,59.8,74.0,67.7,58.0,95,92,85,29.98,29.80,5,1,0,0.03
2013-4-16,83.9,76.2,72.1,76.0,72.5,70.0,94,88,75,30.09,29.97,10,2,0,0.00
2013-4-17,86.2,77.3,71.7,76.0,72.6,70.0,94,86,71,30.07,29.95,10,3,0,0.00
2013-4-18,83.2,76.5,70.6,75.0,72.1,68.0,92,86,76,29.95,29.80,12,4,0,0.00
2013-4-19,76.1,55.4,50.2,73.0,51.2,44.0,93,86,69,30.18,29.81,10,2,0,1.40
2013-4-20,68.3,58.1,47.4,49.0,43.5,39.0,87,61,40,30.27,30.12,9,1,0,0.00
2013-4-21,72.9,62.2,50.3,57.0,52.2,47.0,90,72,49,30.19,30.10,12,1,0,0.00
2013-4-22,79.2,67.1,55.0,68.0,61.1,52.0,94,82,64,30.12,30.02,9,1,0,0.00
2013-4-23,82.0,73.1,65.6,71.0,67.2,63.0,92,82,64,30.07,29.98,10,3,0,0.00
2013-4-24,71.8,67.9,59.8,69.0,65.8,58.0,94,93,90,30.16,29.98,17,2,0,1.47
2013-4-25,74.1,64.1,57.1,63.0,58.4,52.0,94,82,60,30.31,30.16,9,2,0,0.01
2013-4-26,79.9,70.4,62.3,67.0,61.5,53.0,91,74,60,30.26,30.20,11,1,0,0.02
2013-4-27,86.2,74.7,67.3,73.0,68.5,65.0,95,82,56,30.19,30.04,6,1,0,0.00
2013-4-28,77.5,70.1,63.8,72.0,67.3,62.0,94,91,73,30.06,29.93,7,0,0,1.25
2013-4-29,81.9,69.5,62.6,71.0,65.7,61.0,95,88,62,29.98,29.87,5,0,0,1.04
2013-4-30,76.1,69.0,65.1,72.0,67.0,63.0,95,93,85,29.92,29.83,5,0,0,0.93
2013-5-1,78.8,71.6,66.0,74.0,68.1,64.0,95,89,78,29.90,29.81,6,1,0,0.12
2013-5-2,79.2,69.8,65.4,71.0,66.9,64.0,94,90,75,29.94,29.84,5,1,0,1.67
2013-5-3,68.1,61.5,51.9,67.0,58.1,44.0,95,88,75,30.02,29.87,10,2,0,0.08
2013-5-4,72.6,59.4,44.7,52.0,46.9,42.0,93,66,39,30.02,29.88,12,1,0,0.00
2013-5-5,67.5,61.4,56.7,56.0,49.5,44.0,90,67,47,30.04,29.86,16,2,0,0.00
2013-5-6,76.6,63.4,49.3,57.0,51.1,45.0,91,67,43,30.05,29.93,6,1,0,0.00
2013-5-7,81.8,69.7,56.0,64.0,59.2,54.0,94,72,47,30.05,29.97,4,0,0,0.00
2013-5-8,84.5,71.7,59.7,68.0,62.3,58.0,94,75,49,30.12,30.02,7,0,0,0.00
2013-5-9,86.1,74.5,63.6,70.0,66.7,62.0,94,78,53,30.11,30.03,9,2,0,0.00
2013-5-10,72.7,67.6,62.8,70.0,65.5,61.0,95,93,89,30.09,29.90,7,1,0,2.23
2013-5-11,76.0,68.9,62.4,70.0,66.1,61.0,95,91,80,30.07,29.96,4,0,0,0.50
2013-5-12,79.6,71.2,64.5,65.0,61.6,57.0,94,73,52,30.14,30.03,6,1,0,0.00
2013-5-13,79.6,68.8,60.2,57.0,52.3,47.0,83,58,33,30.30,30.14,5,1,0,0.00
2013-5-14,85.2,71.2,56.7,63.0,59.0,55.0,94,69,38,30.28,30.16,4,0,0,0.00
2013-5-15,85.9,72.5,60.8,67.0,62.3,59.0,94,73,42,30.19,30.02,7,1,0,0.00
2013-5-16,87.6,76.5,66.3,72.0,68.3,64.0,93,77,54,30.04,29.92,9,2,0,0.00
2013-5-17,89.2,80.0,72.9,76.0,72.6,70.0,92,79,61,30.04,29.94,9,2,0,0.00
2013-5-18,90.3,80.6,73.3,76.0,73.2,71.0,93,79,60,30.07,29.98,5,1,0,0.00
2013-5-19,87.8,79.1,73.5,77.0,73.8,71.0,93,84,67,30.02,29.95,6,1,0,0.00
2013-5-20,92.2,81.3,74.3,78.0,74.5,72.0,94,80,61,30.00,29.92,11,2,0,0.00
2013-5-21,90.8,80.9,72.7,77.0,73.2,71.0,94,79,60,29.96,29.84,10,2,0,0.00
2013-5-22,80.0,74.2,68.8,73.0,70.6,67.0,94,89,74,30.00,29.83,7,0,0,0.12
2013-5-23,93.0,80.1,69.0,78.0,73.0,67.0,94,80,58,30.04,29.95,5,0,0,0.01
2013-5-24,92.0,80.3,69.4,75.0,70.6,67.0,94,74,52,30.13,30.01,8,1,0,0.00
2013-5-28,81.9,64.7,80.0,69.0,33.4,-99.9,68,50,55,29.99,0.00,7,-198,0,0.00
2013-5-30,-200.0,0.0,200.0,-99.9,-99.9,-99.9,0,0,100,0.00,40.00,0,-999,0,0.00
2013-5-31,89.0,82.6,77.7,78.0,76.1,74.0,89,81,67,29.98,29.94,9,2,0,0.00
2013-6-1,92.8,83.3,75.6,79.0,75.8,74.0,93,79,61,29.97,29.90,6,1,0,0.00
2013-6-2,84.3,77.2,69.5,76.0,73.1,67.0,94,87,71,30.00,29.85,7,0,0,0.36
2013-6-3,92.5,81.5,71.7,78.0,73.7,70.0,94,78,55,29.91,29.82,4,0,0,0.00
2013-6-4,92.6,83.0,74.6,79.0,75.4,72.0,93,78,60,29.92,29.85,12,1,0,0.00
2013-6-5,92.0,83.2,77.0,79.0,75.4,74.0,91,78,63,29.91,29.79,7,1,0,0.00
2013-6-6,92.3,79.8,70.6,78.0,73.0,68.0,94,81,56,29.85,29.73,4,0,0,0.81
2013-6-7,88.3,78.4,70.4,74.0,71.3,69.0,94,80,59,29.89,29.77,5,0,0,0.01
2013-6-8,92.4,82.1,73.0,78.0,73.8,69.0,94,77,59,29.97,29.87,9,1,0,0.00
2013-6-9,90.4,79.4,72.7,77.0,74.6,70.0,94,85,65,29.97,29.89,5,1,0,0.28
2013-6-10,90.7,81.8,76.8,80.0,77.0,75.0,94,86,66,30.03,29.95,6,0,0,0.38
2013-6-11,93.2,82.8,76.5,80.0,76.6,75.0,94,82,60,30.09,30.01,6,0,0,0.01
2013-6-12,94.9,88.6,84.9,77.0,68.8,-99.9,73,56,50,30.09,30.00,3,-33,0,0.00
2013-6-13,93.5,81.3,80.6,78.0,64.5,-99.9,89,65,55,29.94,0.00,5,-60,0,0.00
2013-6-14,97.0,86.7,78.0,81.0,76.9,71.0,93,74,55,29.94,29.83,7,1,0,0.00
2013-6-15,95.5,85.6,78.6,79.0,75.0,70.0,83,71,58,29.99,29.91,9,1,0,0.00
2013-6-16,92.2,83.3,78.0,81.0,77.6,75.0,92,83,64,30.03,29.95,6,0,0,0.35
2013-6-17,92.9,83.6,75.8,79.0,76.1,73.0,93,79,59,30.02,29.92,9,0,0,0.01
2013-6-18,95.3,85.3,74.9,77.0,73.7,69.0,92,70,45,30.01,29.89,10,0,0,0.00
2013-6-19,88.4,81.8,74.4,77.0,72.6,-99.9,93,76,68,30.02,29.95,6,-12,0,0.00
2013-6-20,89.8,79.0,72.1,79.0,73.8,70.0,94,84,68,30.13,30.00,5,0,0,1.09
2013-6-21,92.8,81.5,72.2,76.0,73.0,70.0,94,77,52,30.10,30.04,6,0,0,0.00
2013-6-22,89.6,82.1,74.9,77.0,74.4,72.0,93,78,56,30.09,29.98,7,1,0,0.00
2013-6-23,93.6,81.1,74.4,78.0,74.4,72.0,93,81,55,30.06,30.00,10,0,0,0.23
2013-6-24,94.6,84.0,76.1,78.0,75.1,73.0,92,76,56,30.13,30.04,5,0,0,0.00
2013-6-25,94.6,84.6,78.1,80.0,76.5,74.0,90,77,57,30.10,30.00,6,1,0,0.00
2013-6-26,93.9,83.9,77.1,80.0,77.0,74.0,92,80,62,30.05,29.95,12,0,0,0.01
2013-6-27,96.7,86.0,77.0,81.0,77.9,75.0,93,78,59,30.02,29.91,5,0,0,0.00
2013-6-28,97.4,87.1,78.9,80.0,78.1,75.0,93,76,53,29.94,29.77,6,1,0,0.00
2013-6-29,90.7,81.5,72.7,79.0,76.2,71.0,94,84,62,29.84,29.69,7,1,0,0.77
2013-6-30,94.7,84.1,74.2,77.0,70.2,62.0,94,66,37,29.79,29.70,4,0,0,0.00
2013-7-1,89.2,81.9,73.8,72.0,68.5,66.0,92,65,47,29.90,29.79,6,0,0,0.12
2013-7-2,91.2,81.4,74.2,73.0,70.8,69.0,92,71,49,29.98,29.88,7,1,0,0.00
2013-7-3,89.0,80.6,74.3,74.0,72.3,70.0,93,77,57,30.00,29.91,5,0,0,0.08
2013-7-4,89.2,80.9,75.0,77.0,74.7,73.0,92,82,64,29.97,29.90,7,1,0,0.05
2013-7-5,77.6,75.3,73.0,76.0,72.8,71.0,94,92,84,30.05,29.93,7,1,0,0.76
2013-7-6,84.2,77.7,73.7,78.0,74.4,72.0,94,89,78,30.01,29.94,5,0,0,0.70
2013-7-7,88.9,79.0,74.2,79.0,75.1,72.0,95,88,68,30.11,29.96,9,1,0,0.31
2013-7-8,87.6,77.8,73.9,80.0,74.9,72.0,95,91,74,30.15,30.05,4,0,0,0.53
2013-7-9,92.6,81.6,72.8,79.0,74.9,71.0,95,81,60,30.19,30.07,5,0,0,0.01
2013-7-10,94.4,82.1,75.8,79.0,76.2,74.0,94,83,59,30.11,29.97,5,0,0,0.18
2013-7-11,88.2,78.3,72.2,80.0,75.1,70.0,95,90,73,30.00,29.87,7,0,0,1.91
2013-7-12,94.4,80.4,72.0,79.0,73.8,71.0,95,82,56,29.95,29.84,6,1,0,0.01
2013-7-13,93.2,82.2,73.9,78.0,74.8,72.0,94,79,51,29.92,29.84,5,0,0,0.17
2013-7-14,89.9,82.3,74.7,77.0,74.1,69.0,90,77,63,30.00,29.89,7,1,0,0.00
2013-7-15,89.6,81.8,76.3,79.0,75.1,72.0,91,81,64,30.08,29.98,9,1,0,0.03
2013-7-16,86.8,81.3,77.4,78.0,75.7,74.0,91,83,69,30.14,30.04,5,1,0,0.00
2013-7-17,92.2,83.6,77.8,79.0,75.1,71.0,90,76,58,30.20,30.09,10,1,0,0.00
2013-7-18,93.3,80.7,73.9,78.0,74.4,71.0,94,82,56,30.13,29.99,5,1,0,0.97
2013-7-19,92.7,82.4,73.8,77.0,74.2,72.0,95,78,54,30.05,29.93,4,0,0,0.00
2013-7-20,91.5,81.5,75.1,78.0,75.2,73.0,94,82,58,30.00,29.92,8,0,0,0.01
2013-7-21,82.9,78.0,73.5,77.0,74.8,71.0,94,89,82,30.09,29.97,9,0,0,0.25
2013-7-22,93.3,83.1,77.1,83.0,77.7,75.0,94,84,66,30.07,29.99,10,0,0,0.05
2013-7-23,94.7,84.4,77.2,80.0,77.5,75.0,94,80,57,30.06,29.93,6,0,0,0.00
2013-7-24,93.7,83.9,76.4,80.0,76.6,74.0,93,80,57,29.98,29.87,6,0,0,0.00
2013-7-25,93.3,85.2,79.1,77.0,75.8,73.0,92,75,56,30.02,29.90,7,1,0,0.00
2013-7-26,94.2,85.1,75.6,77.0,74.1,71.0,90,71,48,30.05,29.95,5,0,0,0.00
2013-7-27,84.3,80.4,76.3,80.0,76.5,74.0,93,88,79,29.97,29.86,2,0,0,0.06
2013-7-28,91.6,83.0,76.1,78.0,75.2,72.0,94,79,59,30.00,29.87,9,1,0,0.01
2013-7-29,95.5,83.9,76.1,78.0,76.0,74.0,94,79,53,30.09,29.98,5,0,0,0.21
2013-7-30,94.2,83.6,77.6,80.0,77.2,75.0,94,82,60,30.14,30.06,2,0,0,0.00
2013-7-31,95.0,84.1,77.6,81.0,77.6,74.0,92,81,62,30.10,29.97,4,0,0,0.00
2013-8-1,94.9,85.5,77.7,80.0,77.2,74.0,92,77,55,30.02,29.91,6,0,0,0.14
2013-8-2,95.6,85.1,76.2,81.0,77.1,74.0,94,78,53,30.01,29.91,4,0,0,0.01
2013-8-3,95.9,84.1,76.3,81.0,77.6,74.0,94,81,61,30.06,29.96,6,0,0,0.00
2013-8-4,97.1,85.8,77.6,81.0,77.2,71.0,93,77,44,30.09,29.97,4,0,0,0.00
2013-8-5,97.3,87.2,78.8,81.0,78.0,76.0,92,75,53,30.05,29.94,4,0,0,0.00
2013-8-6,-200.0,0.0,200.0,-99.9,-99.9,-99.9,0,0,100,0.00,40.00,0,-999,0,0.00
2013-8-7,95.5,89.3,83.9,80.0,78.2,76.0,85,71,55,29.92,29.87,4,1,0,0.00
2013-8-8,93.8,85.7,79.4,81.0,78.3,76.0,92,79,64,29.96,29.88,7,1,0,0.13
2013-8-9,95.0,83.5,78.6,81.0,77.3,75.0,92,82,58,30.00,29.90,10,1,0,0.10
2013-8-10,97.2,86.3,79.1,79.0,76.5,73.0,92,74,48,30.06,29.98,6,1,0,0.01
2013-8-11,94.7,84.0,78.8,79.0,76.3,74.0,89,78,54,30.09,30.03,9,1,0,0.05
2013-8-12,96.4,83.8,79.0,81.0,77.2,75.0,94,81,59,30.09,30.01,6,0,0,0.00
2013-8-13,92.4,80.1,73.3,81.0,76.2,71.0,94,88,65,30.07,29.93,10,0,0,1.20
2013-8-14,80.0,75.4,73.6,78.0,73.6,72.0,95,94,90,29.99,29.91,5,0,0,0.72
2013-8-15,89.7,80.7,73.4,78.0,74.7,72.0,95,83,64,29.98,29.89,5,0,0,0.00
2013-8-16,89.9,81.1,75.5,78.0,75.1,73.0,94,82,64,29.96,29.89,5,0,0,0.06
2013-8-17,85.6,79.0,76.1,77.0,74.1,72.0,93,85,68,29.96,29.89,7,1,0,0.02
2013-8-18,83.3,78.4,75.2,76.0,73.7,72.0,93,85,76,30.00,29.89,7,1,0,0.00
2013-8-19,89.8,78.0,71.7,79.0,73.9,70.0,94,88,68,30.04,29.96,5,0,0,0.55
2013-8-20,92.0,80.3,73.3,80.0,75.3,72.0,95,85,61,30.05,29.97,8,0,0,0.29
2013-8-21,92.4,81.2,75.8,80.0,76.4,74.0,94,85,66,30.10,30.02,6,0,0,0.03
2013-8-22,91.8,83.9,74.8,78.0,75.3,72.0,93,76,58,30.08,29.95,6,1,0,0.01
2013-8-23,87.3,81.2,77.2,78.0,75.2,73.0,92,82,71,29.99,29.91,11,1,0,0.15
2013-8-24,81.1,77.4,74.7,75.0,73.8,73.0,94,89,81,30.07,29.94,9,1,0,0.43
2013-8-25,84.5,77.9,74.7,77.0,74.5,73.0,94,89,75,30.15,30.05,7,0,0,0.06
2013-8-26,85.5,79.1,74.7,78.0,74.7,72.0,94,87,73,30.16,30.08,10,1,0,0.00
2013-8-27,89.2,79.9,71.7,76.0,70.0,66.0,94,74,51,30.11,30.02,7,1,0,0.00
2013-8-28,89.2,78.5,70.3,73.0,68.2,64.0,94,73,47,30.08,30.00,7,0,0,0.00
2013-8-29,90.5,79.8,70.1,74.0,69.6,66.0,94,73,48,30.07,29.97,5,0,0,0.00
2013-8-30,90.9,81.6,72.8,75.0,72.8,71.0,94,76,55,30.03,29.92,4,0,0,0.02
2013-8-31,93.5,83.3,74.9,78.0,75.0,73.0,94,78,54,29.98,29.86,3,0,0,0.00
2013-9-1,94.8,84.2,75.5,78.0,76.0,73.0,94,78,55,29.94,29.85,4,0,0,0.00
2013-9-2,95.7,85.1,76.6,79.0,76.2,73.0,93,76,53,29.98,29.86,7,0,0,0.00
2013-9-3,96.4,83.0,76.9,81.0,76.7,75.0,94,83,54,29.98,29.86,7,0,0,0.53
2013-9-4,95.6,81.7,74.9,80.0,76.0,73.0,95,84,56,30.05,29.93,11,0,0,0.01
2013-9-7,84.5,76.8,75.2,76.0,68.4,-99.9,91,81,75,29.99,0.00,7,-31,0,0.00
2013-9-8,94.0,80.9,73.0,78.0,74.0,71.0,94,81,54,29.99,29.92,8,1,0,0.02
2013-9-9,92.9,81.9,72.8,77.0,73.2,71.0,94,77,50,30.03,29.94,9,1,0,0.00
2013-9-10,89.4,81.4,73.6,79.0,74.8,71.0,93,81,67,30.09,30.00,5,0,0,0.04
2013-9-11,92.5,82.9,75.5,77.0,73.5,70.0,90,74,52,30.10,30.01,10,1,0,0.00
2013-9-12,93.9,83.8,74.9,76.0,73.6,71.0,92,73,48,30.02,29.91,8,1,0,0.00
2013-9-13,94.6,83.4,74.1,79.0,73.7,69.0,94,75,45,29.93,29.80,6,0,0,0.00
2013-9-14,92.0,80.2,74.0,79.0,74.8,72.0,94,84,63,29.96,29.85,4,0,0,0.59
2013-9-15,92.8,82.7,74.9,79.0,75.2,73.0,94,79,60,30.03,29.94,7,1,0,0.00
2013-9-16,91.9,83.1,75.4,79.0,76.0,73.0,94,80,63,30.06,29.99,6,1,0,0.00
2013-9-17,92.4,83.4,76.0,78.0,75.4,73.0,94,78,60,30.06,29.94,5,1,0,0.00
2013-9-18,88.5,82.1,79.4,78.0,76.2,74.0,90,82,67,30.03,29.96,11,1,0,0.26
2013-9-19,89.6,79.6,75.2,80.0,75.8,73.0,94,88,70,30.02,29.94,10,1,0,1.38
2013-9-20,93.1,83.5,77.2,79.0,76.9,75.0,93,81,60,29.97,29.80,10,1,0,0.00
2013-9-21,81.0,76.7,73.0,77.0,74.5,71.0,95,93,87,29.81,29.70,5,0,0,2.66
2013-9-22,80.5,74.4,70.0,71.0,68.7,64.0,95,83,70,29.80,29.71,12,1,0,0.23
2013-9-23,89.3,79.8,70.6,78.0,72.9,64.0,91,79,67,29.83,29.77,5,1,0,0.00
2013-9-24,90.2,81.8,76.7,81.0,77.8,74.0,94,88,75,29.84,29.73,7,0,0,0.24
2013-9-25,90.2,80.2,73.0,76.0,71.5,64.0,94,77,45,29.84,29.75,6,0,0,0.02
2013-9-26,88.8,77.7,67.7,71.0,67.3,65.0,94,73,46,29.93,29.80,4,0,0,0.00
2013-9-27,90.2,78.2,68.9,74.0,70.6,67.0,94,79,55,30.00,29.90,5,0,0,0.00
2013-9-28,88.6,77.9,69.1,73.0,69.6,67.0,94,76,56,30.05,29.97,4,0,0,0.00
2013-9-29,88.2,77.5,67.5,73.0,69.4,66.0,94,77,55,30.03,29.93,7,0,0,0.00
2013-9-30,83.5,78.1,75.1,76.0,73.3,72.0,91,85,77,29.95,29.90,9,0,0,0.04
2013-10-1,87.1,78.5,74.6,76.0,73.5,71.0,93,85,66,30.01,29.93,5,0,0,0.03
2013-10-2,84.4,77.7,73.6,77.0,74.3,71.0,94,89,76,30.03,29.95,4,0,0,0.11
2013-10-3,91.5,80.2,74.2,78.0,74.7,72.0,94,84,61,30.02,29.91,11,1,0,0.02
2013-10-4,89.7,78.8,73.1,79.0,73.8,70.0,93,85,63,30.01,29.93,10,1,0,0.51
2013-10-5,86.4,78.9,75.3,77.0,74.7,73.0,94,87,66,29.98,29.88,13,2,0,0.27
2013-10-6,87.4,76.7,68.4,77.0,71.3,56.0,94,84,64,29.94,29.80,10,1,0,0.05
2013-10-7,75.8,69.7,64.1,58.0,55.8,53.0,75,62,45,30.03,29.93,10,2,0,0.00
2013-10-8,76.0,68.1,60.7,60.0,57.9,55.0,90,71,52,30.04,29.97,5,0,0,0.00
2013-10-9,83.4,70.4,58.5,68.0,62.5,57.0,94,78,53,30.07,29.98,3,0,0,0.00
2013-10-10,83.1,74.2,66.3,73.0,69.1,64.0,94,84,69,30.09,29.98,4,0,0,0.00
2013-10-11,87.0,75.5,68.6,75.0,70.9,67.0,94,86,64,30.03,29.96,9,1,0,0.07
2013-10-12,89.1,77.6,71.0,75.0,72.1,69.0,94,84,60,30.07,29.98,6,0,0,0.02
2013-10-13,87.9,78.0,71.5,75.0,71.7,70.0,94,82,62,30.16,30.03,2,0,0,0.01
2013-10-14,87.0,77.0,69.8,71.0,67.4,61.0,94,74,44,30.10,30.00,4,0,0,0.00
2013-10-15,87.1,76.3,67.7,72.0,69.2,66.0,95,80,56,30.03,29.93,5,0,0,0.02
2013-10-16,86.7,77.6,71.0,74.0,71.8,68.0,93,83,64,29.99,29.90,5,0,0,0.00
2013-10-17,80.3,74.9,67.7,73.0,70.2,63.0,94,85,74,29.99,29.90,6,1,0,0.00
2013-10-18,76.3,69.4,65.8,65.0,62.4,61.0,86,78,65,30.03,29.92,6,1,0,0.00
2013-10-19,70.1,66.5,60.5,66.0,63.1,58.0,94,89,75,30.01,29.88,6,0,0,1.23
2013-10-20,74.0,64.6,57.4,62.0,58.6,55.0,92,82,64,30.07,29.97,5,0,0,0.00
2013-10-21,74.9,67.5,60.8,67.0,63.4,58.0,93,87,75,30.04,29.95,2,0,0,0.01
2013-10-22,78.2,71.3,65.5,67.0,63.4,59.0,92,77,54,30.00,29.91,9,1,0,0.00
2013-10-23,75.6,66.6,57.3,59.0,54.9,50.0,83,67,47,30.12,29.99,6,1,0,0.00
2013-10-24,82.1,64.9,52.2,58.0,53.5,50.0,92,70,35,30.21,30.11,3,0,0,0.00
2013-10-25,68.7,62.3,57.6,58.0,50.6,42.0,93,67,47,30.37,30.20,9,1,0,0.00
2013-10-26,77.3,63.1,49.8,59.0,52.7,43.0,89,70,46,30.29,30.15,6,0,0,0.00
2013-10-27,77.4,66.1,55.1,65.0,60.2,53.0,95,82,63,30.16,30.03,3,0,0,0.00
2013-10-28,82.1,71.5,63.4,69.0,65.1,61.0,94,81,62,30.18,30.06,7,0,0,0.00
2013-10-29,83.3,71.6,61.9,70.0,64.9,60.0,94,80,57,30.22,30.14,6,1,0,0.00
2013-10-30,81.0,74.6,69.3,70.0,68.8,67.0,93,83,67,30.18,30.03,12,1,0,0.00
2013-10-31,83.2,76.1,69.0,73.0,71.2,67.0,94,85,71,30.02,29.82,13,2,0,0.33
2013-11-1,77.4,68.6,59.2,69.0,61.6,57.0,94,80,51,29.93,29.80,7,0,0,0.06
2013-11-2,74.2,64.9,55.9,60.0,53.4,45.0,94,69,45,30.15,29.92,7,1,0,0.00
2013-11-3,67.1,58.8,51.9,49.0,46.8,43.0,83,66,43,30.23,30.12,7,1,0,0.00
2013-11-4,72.6,64.8,52.3,64.0,58.3,48.0,89,80,64,30.22,30.12,5,0,0,0.00
2013-11-5,76.6,69.9,66.8,67.0,65.0,62.0,89,84,72,30.19,30.09,10,1,0,0.00
2013-11-6,78.9,72.0,66.6,73.0,68.9,64.0,94,90,79,30.10,30.02,6,0,0,0.06
2013-11-7,70.2,60.8,53.4,69.0,53.8,44.0,94,79,58,30.29,30.07,15,3,0,0.06
2013-11-8,64.7,56.4,49.5,44.0,40.3,36.0,71,56,36,30.32,30.17,9,2,0,0.00
2013-11-9,75.3,62.1,50.5,60.0,54.1,43.0,93,76,58,30.22,30.14,4,0,0,0.00
2013-11-10,76.0,65.8,58.0,61.0,57.7,54.0,93,76,59,30.25,30.16,5,0,0,0.00
2013-11-11,77.2,64.9,55.2,59.0,55.0,50.0,91,72,51,30.23,30.12,5,0,0,0.00
2013-11-12,72.0,59.2,45.2,57.0,51.4,35.0,94,77,55,30.46,30.16,21,4,0,0.00
2013-11-13,54.6,46.9,38.2,34.0,30.1,27.0,66,53,39,30.52,30.39,11,2,0,0.00
2013-11-14,62.2,54.6,43.9,58.0,45.4,31.0,89,72,57,30.39,30.09,7,0,0,0.00
2013-11-15,71.5,64.8,59.5,68.0,62.0,56.0,94,90,87,30.08,29.96,5,0,0,0.10
2013-11-16,77.8,69.2,60.6,71.0,66.1,59.0,96,90,79,30.05,29.95,7,1,0,0.02
2013-11-17,81.6,74.4,69.4,76.0,71.7,68.0,95,91,82,29.98,29.89,4,1,0,0.02
2013-11-18,74.1,66.5,61.2,72.0,60.8,46.0,95,82,58,30.08,29.94,5,0,0,1.26
2013-11-19,62.0,58.2,52.6,46.0,41.8,36.0,65,55,46,30.14,30.03,7,1,0,0.00
2013-11-20,70.1,58.6,47.2,60.0,49.3,38.0,92,72,59,30.11,30.01,4,0,0,0.00
2013-11-25,61.3,57.5,57.7,60.0,53.3,-99.9,95,92,94,29.96,0.00,3,-27,0,0.18
2013-11-26,57.7,48.3,42.5,56.0,46.6,41.0,95,93,90,30.04,29.74,15,3,0,1.62
2013-11-27,47.4,43.3,38.3,41.0,33.7,30.0,93,70,53,30.39,30.04,15,3,0,0.00
2013-11-28,47.8,39.7,33.9,34.0,31.1,27.0,92,72,52,30.49,30.39,4,0,0,0.00
2013-11-29,56.9,43.3,33.0,41.0,33.0,23.0,100,72,29,30.53,30.42,6,0,0,0.00
2013-11-30,66.2,50.4,36.2,50.0,42.7,34.0,94,78,47,30.42,30.25,4,0,0,0.00
2013-12-1,69.8,57.3,46.1,56.0,51.4,44.0,94,82,58,30.28,30.00,3,0,0,0.00
2013-12-2,72.7,62.6,54.2,64.0,58.4,52.0,94,86,73,30.00,29.78,7,1,0,0.03
2013-12-3,76.9,68.6,61.7,70.0,65.5,60.0,96,90,77,29.83,29.74,11,1,0,0.11
2013-12-4,80.9,73.3,69.2,74.0,70.3,68.0,95,90,75,29.95,29.82,6,1,0,0.00
2013-12-5,72.5,72.4,72.2,71.0,70.8,70.0,94,94,93,29.94,29.92,6,1,0,0.00
2013-12-6,58.5,37.9,55.7,56.0,3.2,-99.9,93,61,91,30.07,30.05,3,-332,0,0.11
2013-12-7,44.2,43.4,42.7,43.0,41.9,41.0,94,94,92,30.29,30.22,6,1,0,0.00
2013-12-8,53.3,48.9,44.2,52.0,47.5,43.0,95,94,94,30.23,30.02,5,0,0,0.00
2013-12-9,63.9,56.8,52.0,59.0,54.6,51.0,95,92,84,30.13,30.03,5,0,0,0.03
2013-12-10,56.1,45.9,41.3,54.0,40.9,37.0,94,83,69,30.35,30.07,10,3,0,0.07
2013-12-11,55.6,49.2,41.4,48.0,42.5,37.0,85,78,67,30.40,30.30,4,0,0,0.00
2013-12-12,54.0,49.9,45.1,48.0,37.3,30.0,82,63,50,30.49,30.36,12,1,0,0.00
2013-12-13,64.1,53.8,41.1,58.0,46.9,31.0,90,78,57,30.35,29.96,5,0,0,0.00
2013-12-14,71.1,63.3,50.0,68.0,60.6,45.0,94,91,84,30.08,29.83,9,1,0,0.20
2013-12-15,49.9,46.3,41.3,46.0,39.9,37.0,87,78,69,30.32,30.08,11,2,0,0.00
2013-12-16,57.8,45.3,35.3,40.0,37.4,33.0,94,76,47,30.36,30.25,3,0,0,0.00
2013-12-17,63.4,48.7,38.0,48.0,40.1,34.0,94,75,37,30.35,30.23,4,0,0,0.00
2013-12-18,66.1,52.1,39.3,49.0,44.4,38.0,94,77,51,30.36,30.21,6,0,0,0.00
2013-12-19,74.3,63.3,50.6,62.0,57.1,48.0,93,81,61,30.20,30.02,10,1,0,0.00
2013-12-20,77.6,70.4,65.2,71.0,66.8,61.0,93,88,79,30.06,29.94,10,2,0,0.00
2013-12-21,78.1,73.3,68.9,73.0,70.3,67.0,94,90,83,29.94,29.75,13,4,0,0.00
2013-12-22,72.7,59.1,54.9,71.0,57.2,53.0,95,93,86,30.16,29.82,6,1,0,2.45
2013-12-23,55.5,47.1,39.2,54.0,43.1,35.0,95,86,77,30.46,30.13,12,2,0,0.01
2013-12-24,50.3,41.9,35.5,37.0,34.0,32.0,88,75,52,30.53,30.36,11,2,0,0.00
2013-12-25,49.7,43.7,36.4,36.0,33.0,30.0,82,67,49,30.40,30.29,4,0,0,0.00
2013-12-26,52.8,46.0,42.3,38.0,34.9,32.0,74,66,55,30.38,30.27,6,1,0,0.00
2013-12-28,50.5,47.8,47.8,49.0,42.4,-99.9,94,90,94,30.10,0.00,9,-37,0,0.26
2013-12-29,58.2,51.2,45.4,49.0,46.6,43.0,95,85,62,30.13,29.98,9,0,0,0.26
2013-12-30,58.8,51.1,44.3,51.0,47.2,42.0,94,87,73,30.32,30.10,4,0,0,0.00
2013-12-31,51.0,45.8,44.2,48.0,42.4,40.0,93,88,83,30.41,30.30,10,1,0,0.08
2014-1-1,63.8,54.1,45.0,59.0,51.8,43.0,94,92,84,30.31,30.02,5,0,0,0.02
2014-1-2,58.1,53.1,40.8,56.0,46.3,28.0,95,79,49,30.35,29.94,11,2,0,0.01